Time;durP1;ratioP1;P1;durP2;ratioP2;P2;SDS_P1;SDS_P2;PMS_P1;PMS_P2;Temp;Humidity;BMP_temperature;BMP_pressure;BME280_temperature;BME280_humidity;BME280_pressure;Samples;Min_cycle;Max_cycle;Signal;HPM_P1;HPM_P2
2021/06/16 00:01:15;;;;;;;3.17;2.87;;;19.00;90.80;;;;;;5055789;28;20454;-80
2021/06/16 00:03:42;;;;;;;3.10;2.90;;;19.00;91.00;;;;;;5055621;28;20461;-80
2021/06/16 00:06:09;;;;;;;2.73;2.63;;;18.90;91.30;;;;;;5054599;28;20449;-80
2021/06/16 00:08:37;;;;;;;3.20;2.90;;;18.90;91.70;;;;;;5055488;28;20437;-80
2021/06/16 00:11:07;;;;;;;4.43;3.67;;;18.90;92.40;;;;;;5055188;28;20445;-80
2021/06/16 00:13:34;;;;;;;3.40;3.10;;;18.80;92.20;;;;;;5055290;28;20505;-80
2021/06/16 00:16:00;;;;;;;3.37;3.17;;;18.80;92.90;;;;;;5055086;28;20445;-80
2021/06/16 00:18:27;;;;;;;2.97;2.77;;;18.80;93.50;;;;;;5055183;28;20826;-80
2021/06/16 00:20:54;;;;;;;3.33;3.00;;;18.70;94.00;;;;;;5055034;28;20434;-80
2021/06/16 00:23:21;;;;;;;3.40;3.10;;;18.70;94.70;;;;;;5054968;28;20461;-80
2021/06/16 00:25:49;;;;;;;3.77;3.47;;;18.70;94.90;;;;;;5055238;28;20453;-80
2021/06/16 00:28:16;;;;;;;3.13;2.90;;;18.70;95.80;;;;;;5055374;28;20445;-80
2021/06/16 00:30:42;;;;;;;3.00;2.80;;;18.60;96.50;;;;;;5055538;28;20457;-80
2021/06/16 00:33:09;;;;;;;4.57;3.67;;;18.60;97.10;;;;;;5054923;28;20462;-80
2021/06/16 00:35:36;;;;;;;3.20;2.90;;;18.50;98.10;;;;;;5054694;28;20481;-80
2021/06/16 00:38:03;;;;;;;3.40;3.10;;;18.50;99.00;;;;;;5054723;28;20441;-80
2021/06/16 00:40:31;;;;;;;3.67;3.37;;;18.50;99.70;;;;;;5054608;28;20497;-80
2021/06/16 00:43:00;;;;;;;4.13;3.10;;;18.40;99.90;;;;;;5054805;28;20466;-80
2021/06/16 00:45:28;;;;;;;3.10;2.90;;;18.40;99.90;;;;;;5054677;28;20460;-80
2021/06/16 00:47:56;;;;;;;3.37;3.10;;;18.40;99.90;;;;;;5054770;28;20454;-80
2021/06/16 00:50:24;;;;;;;4.90;3.77;;;18.40;99.90;;;;;;5054690;28;20446;-80
2021/06/16 00:52:52;;;;;;;2.80;2.60;;;18.40;99.90;;;;;;5054531;28;20497;-80
2021/06/16 00:55:18;;;;;;;4.87;3.60;;;18.30;99.90;;;;;;5054268;28;21011;-80
2021/06/16 00:57:46;;;;;;;4.43;3.20;;;18.30;99.90;;;;;;5054526;28;20457;-80
2021/06/16 01:00:18;;;;;;;3.37;3.10;;;18.30;99.90;;;;;;5054105;28;21012;-80
2021/06/16 01:02:50;;;;;;;5.60;3.77;;;18.30;99.90;;;;;;5054391;28;20548;-80
2021/06/16 01:05:18;;;;;;;3.67;3.37;;;18.30;99.90;;;;;;5054433;28;20434;-79
2021/06/16 01:07:48;;;;;;;4.30;3.10;;;18.30;99.90;;;;;;5054146;28;20442;-80
2021/06/16 01:10:18;;;;;;;3.20;3.00;;;18.30;99.90;;;;;;5054425;28;20430;-80
2021/06/16 01:12:48;;;;;;;3.90;3.60;;;18.30;99.90;;;;;;5054239;28;20476;-80
2021/06/16 01:15:20;;;;;;;4.30;3.50;;;18.30;99.90;;;;;;5054277;28;20493;-80
2021/06/16 01:17:51;;;;;;;3.97;3.60;;;18.30;99.90;;;;;;5053998;28;20435;-80
2021/06/16 01:20:36;;;;;;;3.27;3.07;;;18.30;99.90;;;;;;5053736;28;20866;-80
2021/06/16 01:23:30;;;;;;;3.00;2.80;;;18.20;99.90;;;;;;5050463;28;20490;-80
2021/06/16 01:26:10;;;;;;;3.50;3.30;;;18.20;99.90;;;;;;5037475;28;20445;-80
2021/06/16 01:28:42;;;;;;;3.50;3.20;;;18.20;99.90;;;;;;5054018;28;20460;-80
2021/06/16 01:31:11;;;;;;;4.07;3.30;;;18.20;99.90;;;;;;5054022;28;20445;-80
2021/06/16 01:33:38;;;;;;;4.30;3.90;;;18.10;99.90;;;;;;5053530;28;20465;-80
2021/06/16 01:36:07;;;;;;;3.33;3.13;;;18.10;99.90;;;;;;5053978;28;20446;-80
2021/06/16 01:38:35;;;;;;;4.37;3.57;;;18.10;99.90;;;;;;5053624;28;20450;-80
2021/06/16 01:41:04;;;;;;;3.43;3.13;;;18.10;99.90;;;;;;5053727;28;20470;-80
2021/06/16 01:43:32;;;;;;;3.93;3.43;;;18.10;99.90;;;;;;5053670;28;20477;-80
2021/06/16 01:46:01;;;;;;;3.20;3.00;;;18.10;99.90;;;;;;5053782;28;20437;-80
2021/06/16 01:48:30;;;;;;;4.43;3.50;;;18.00;99.90;;;;;;5053708;28;20434;-79
2021/06/16 01:50:58;;;;;;;3.53;3.23;;;18.00;99.90;;;;;;5053654;28;20429;-80
2021/06/16 01:53:26;;;;;;;6.40;5.83;;;18.00;99.90;;;;;;5053546;28;20469;-80
2021/06/16 01:55:53;;;;;;;4.03;3.23;;;18.00;99.90;;;;;;5053612;28;20430;-80
2021/06/16 01:58:21;;;;;;;4.13;3.73;;;17.90;99.90;;;;;;5053220;28;20932;-80
2021/06/16 02:00:52;;;;;;;4.60;3.83;;;17.90;99.90;;;;;;5053417;28;20466;-80
2021/06/16 02:03:20;;;;;;;3.23;3.03;;;17.90;99.90;;;;;;5053103;28;20864;-80
2021/06/16 02:05:47;;;;;;;3.70;3.40;;;17.80;99.90;;;;;;5053112;28;20430;-79
2021/06/16 02:08:16;;;;;;;3.70;3.33;;;17.80;99.90;;;;;;5053592;28;20442;-80
2021/06/16 02:10:47;;;;;;;4.07;3.77;;;17.90;99.90;;;;;;5053483;28;20431;-80
2021/06/16 02:13:17;;;;;;;6.73;3.33;;;17.90;99.90;;;;;;5052999;28;20850;-80
2021/06/16 02:15:47;;;;;;;3.57;3.33;;;17.90;99.90;;;;;;5053056;28;20828;-80
2021/06/16 02:18:21;;;;;;;3.57;3.27;;;17.90;99.90;;;;;;5053729;28;20467;-80
2021/06/16 02:20:48;;;;;;;4.17;3.77;;;17.90;99.90;;;;;;5053215;28;20474;-80
2021/06/16 02:23:16;;;;;;;3.00;2.80;;;18.00;99.90;;;;;;5053254;28;20473;-80
2021/06/16 02:25:43;;;;;;;3.30;3.10;;;18.00;99.90;;;;;;5053220;28;20446;-80
2021/06/16 02:28:09;;;;;;;3.90;3.60;;;18.00;99.90;;;;;;5052943;28;20505;-80
2021/06/16 02:30:36;;;;;;;3.80;3.50;;;17.90;99.90;;;;;;5057367;28;20441;-80
2021/06/16 02:33:03;;;;;;;3.93;3.43;;;17.90;99.90;;;;;;5057270;28;20470;-79
2021/06/16 02:35:31;;;;;;;3.40;3.10;;;17.90;99.90;;;;;;5057527;28;20456;-80
2021/06/16 02:38:05;;;;;;;3.67;3.37;;;17.90;99.90;;;;;;5057528;28;20442;-80
2021/06/16 02:40:32;;;;;;;3.97;3.67;;;17.90;99.90;;;;;;5056887;28;20496;-80
2021/06/16 02:43:00;;;;;;;4.00;3.57;;;17.80;99.90;;;;;;5057057;28;20466;-80
2021/06/16 02:45:27;;;;;;;5.07;3.63;;;17.80;99.90;;;;;;5056970;28;20450;-80
2021/06/16 02:47:55;;;;;;;4.40;4.00;;;17.70;99.90;;;;;;5056902;28;20957;-80
2021/06/16 02:50:27;;;;;;;4.50;3.23;;;17.70;99.90;;;;;;5056916;28;20442;-80
2021/06/16 02:52:58;;;;;;;3.77;3.47;;;17.70;99.90;;;;;;5057494;28;20469;-80
2021/06/16 02:55:26;;;;;;;3.60;3.30;;;17.70;99.90;;;;;;5056595;28;20430;-80
2021/06/16 02:57:54;;;;;;;3.37;3.17;;;17.70;99.90;;;;;;5056937;28;20453;-80
2021/06/16 03:00:23;;;;;;;4.47;3.43;;;17.60;99.90;;;;;;5056735;28;20470;-80
2021/06/16 03:02:51;;;;;;;4.73;3.67;;;17.60;99.90;;;;;;5056408;28;20453;-80
2021/06/16 03:05:22;;;;;;;3.07;2.77;;;17.50;99.90;;;;;;5056698;28;20449;-80
2021/06/16 03:07:50;;;;;;;3.13;2.80;;;17.50;99.90;;;;;;5056740;28;20434;-80
2021/06/16 03:10:19;;;;;;;4.10;2.90;;;17.50;99.90;;;;;;5056624;28;20452;-80
2021/06/16 03:12:48;;;;;;;3.37;2.90;;;17.50;99.90;;;;;;5056442;28;20489;-80
2021/06/16 03:15:16;;;;;;;3.67;3.47;;;17.40;99.90;;;;;;5056648;28;20522;-80
2021/06/16 03:17:46;;;;;;;4.40;3.37;;;17.40;99.90;;;;;;5056450;28;20452;-80
2021/06/16 03:20:16;;;;;;;3.77;2.83;;;17.40;99.90;;;;;;5056586;28;20478;-80
2021/06/16 03:22:44;;;;;;;2.87;2.67;;;17.40;99.90;;;;;;5056339;28;20983;-80
2021/06/16 03:25:13;;;;;;;4.27;3.47;;;17.40;99.90;;;;;;5056435;28;20437;-80
2021/06/16 03:27:42;;;;;;;3.53;2.93;;;17.30;99.90;;;;;;5056290;28;20456;-80
2021/06/16 03:30:10;;;;;;;3.27;3.07;;;17.30;99.90;;;;;;5056278;28;20442;-80
2021/06/16 03:32:37;;;;;;;3.50;3.17;;;17.30;99.90;;;;;;5056151;28;20466;-80
2021/06/16 03:35:06;;;;;;;2.90;2.70;;;17.30;99.90;;;;;;5056360;28;20461;-80
2021/06/16 03:37:33;;;;;;;3.77;3.33;;;17.30;99.90;;;;;;5055898;28;20820;-80
2021/06/16 03:40:01;;;;;;;3.20;3.00;;;17.30;99.90;;;;;;5055531;28;20493;-80
2021/06/16 03:42:28;;;;;;;4.17;3.33;;;17.30;99.90;;;;;;5055652;28;20469;-80
2021/06/16 03:45:01;;;;;;;3.20;3.00;;;17.40;99.90;;;;;;5055821;28;20461;-80
2021/06/16 03:47:29;;;;;;;3.83;3.53;;;17.40;99.90;;;;;;5055740;28;20928;-80
2021/06/16 03:49:57;;;;;;;6.97;3.30;;;17.40;99.90;;;;;;5056123;28;20434;-80
2021/06/16 03:52:24;;;;;;;3.20;2.90;;;17.40;99.90;;;;;;5055478;28;20454;-80
2021/06/16 03:54:53;;;;;;;3.50;3.20;;;17.40;99.90;;;;;;5055728;28;20860;-80
2021/06/16 03:57:21;;;;;;;3.87;3.57;;;17.40;99.90;;;;;;5055729;28;20523;-80
2021/06/16 03:59:48;;;;;;;3.17;2.90;;;17.50;99.90;;;;;;5055591;28;20445;-80
2021/06/16 04:02:17;;;;;;;4.30;3.90;;;17.50;99.90;;;;;;5055244;28;21023;-80
2021/06/16 04:04:44;;;;;;;3.40;3.10;;;17.50;99.90;;;;;;5055359;28;20436;-80
2021/06/16 04:07:15;;;;;;;3.30;2.70;;;17.60;99.90;;;;;;5055271;28;20442;-80
2021/06/16 04:09:43;;;;;;;3.00;2.80;;;17.60;99.90;;;;;;5055576;28;20430;-80
2021/06/16 04:12:11;;;;;;;3.50;3.03;;;17.60;99.90;;;;;;5055373;28;20466;-80
2021/06/16 04:14:40;;;;;;;2.70;2.50;;;17.70;99.90;;;;;;5055863;28;20540;-79
2021/06/16 04:17:07;;;;;;;3.27;2.47;;;17.80;99.90;;;;;;5055021;28;20929;-80
2021/06/16 04:19:36;;;;;;;3.40;2.67;;;17.80;99.90;;;;;;5054988;28;20814;-80
2021/06/16 04:22:03;;;;;;;4.90;3.57;;;17.90;99.90;;;;;;5055138;28;20489;-80
2021/06/16 04:24:30;;;;;;;2.63;2.50;;;18.00;99.90;;;;;;5055214;28;20450;-80
2021/06/16 04:26:57;;;;;;;4.63;3.07;;;18.00;99.90;;;;;;5055180;28;20456;-80
2021/06/16 04:29:24;;;;;;;2.90;2.70;;;18.10;99.90;;;;;;5055261;28;20457;-80
2021/06/16 04:31:51;;;;;;;6.13;3.50;;;18.20;99.90;;;;;;5054877;28;20466;-80
2021/06/16 04:34:18;;;;;;;3.23;2.90;;;18.20;99.90;;;;;;5055004;28;20434;-80
2021/06/16 04:36:46;;;;;;;3.00;2.80;;;18.20;99.90;;;;;;5054987;28;20453;-80
2021/06/16 04:39:13;;;;;;;2.87;2.60;;;18.30;99.90;;;;;;5054532;28;20477;-80
2021/06/16 04:41:39;;;;;;;3.10;2.90;;;18.30;99.90;;;;;;5055578;28;20493;-80
2021/06/16 04:44:06;;;;;;;3.20;2.90;;;18.40;99.90;;;;;;5054888;28;20450;-80
2021/06/16 04:46:33;;;;;;;3.50;3.20;;;18.40;99.90;;;;;;5054680;28;20456;-80
2021/06/16 04:49:00;;;;;;;3.37;3.17;;;18.40;99.90;;;;;;5054765;28;20446;-80
2021/06/16 04:51:27;;;;;;;3.70;3.17;;;18.50;99.90;;;;;;5053987;28;20450;-80
2021/06/16 04:53:55;;;;;;;4.70;4.20;;;18.50;99.90;;;;;;5054701;28;20449;-80
2021/06/16 04:56:22;;;;;;;3.60;3.40;;;18.60;99.90;;;;;;5054632;28;20839;-80
2021/06/16 04:58:49;;;;;;;3.20;3.00;;;18.60;99.90;;;;;;5054275;28;20449;-80
2021/06/16 05:01:16;;;;;;;4.93;3.30;;;18.70;99.90;;;;;;5054128;28;20477;-80
2021/06/16 05:03:43;;;;;;;3.70;3.40;;;18.70;99.90;;;;;;5054182;28;20541;-80
2021/06/16 05:06:09;;;;;;;4.30;3.60;;;18.70;99.90;;;;;;5054405;28;20450;-80
2021/06/16 05:08:36;;;;;;;3.80;3.50;;;18.70;99.90;;;;;;5054413;28;20454;-80
2021/06/16 05:11:04;;;;;;;4.20;3.80;;;18.80;99.90;;;;;;5054054;28;20442;-80
2021/06/16 05:13:31;;;;;;;4.77;3.13;;;18.80;99.90;;;;;;5054215;28;20476;-80
2021/06/16 05:15:58;;;;;;;3.77;3.40;;;18.90;99.90;;;;;;5054253;28;20452;-80
2021/06/16 05:18:25;;;;;;;4.83;4.33;;;18.90;99.90;;;;;;5054390;28;20450;-80
2021/06/16 05:20:52;;;;;;;3.73;3.07;;;19.00;99.90;;;;;;5054092;28;20525;-80
2021/06/16 05:23:19;;;;;;;5.57;4.37;;;19.10;99.90;;;;;;5053692;28;20470;-80
2021/06/16 05:25:47;;;;;;;4.40;3.77;;;19.10;99.90;;;;;;5054055;28;20452;-80
2021/06/16 05:28:15;;;;;;;3.90;3.60;;;19.20;99.90;;;;;;5054773;28;20519;-80
2021/06/16 05:30:42;;;;;;;3.57;3.37;;;19.30;99.90;;;;;;5054314;28;20873;-80
2021/06/16 05:33:09;;;;;;;3.97;3.50;;;19.40;99.90;;;;;;5053700;28;20476;-80
2021/06/16 05:35:35;;;;;;;3.70;3.40;;;19.50;99.90;;;;;;5053834;28;20454;-80
2021/06/16 05:38:03;;;;;;;4.27;3.90;;;19.60;99.90;;;;;;5053784;28;20469;-80
2021/06/16 05:40:30;;;;;;;4.10;3.80;;;19.70;99.90;;;;;;5053255;28;20470;-79
2021/06/16 05:42:57;;;;;;;5.20;4.17;;;19.80;99.90;;;;;;5053623;28;20470;-80
2021/06/16 05:45:25;;;;;;;4.20;3.90;;;20.00;99.90;;;;;;5053441;28;20433;-80
2021/06/16 05:47:52;;;;;;;5.37;3.60;;;20.10;99.90;;;;;;5053392;28;20434;-80
2021/06/16 05:50:19;;;;;;;3.80;3.50;;;20.30;99.90;;;;;;5053596;28;20457;-80
2021/06/16 05:52:46;;;;;;;4.43;3.27;;;20.40;99.90;;;;;;5053466;28;20484;-80
2021/06/16 05:55:13;;;;;;;3.40;3.17;;;20.60;99.90;;;;;;5053282;28;20438;-80
2021/06/16 05:57:40;;;;;;;3.73;3.30;;;20.60;99.90;;;;;;5053508;28;20450;-79
2021/06/16 06:00:09;;;;;;;4.37;3.53;;;20.70;99.90;;;;;;5053746;28;20450;-79
2021/06/16 06:02:37;;;;;;;3.30;3.10;;;20.90;99.90;;;;;;5052384;28;20958;-80
2021/06/16 06:05:04;;;;;;;3.37;3.07;;;21.00;99.90;;;;;;5052941;28;20434;-80
2021/06/16 06:07:31;;;;;;;3.80;3.60;;;21.10;99.90;;;;;;5053359;28;20452;-80
2021/06/16 06:09:57;;;;;;;6.60;3.83;;;21.30;99.90;;;;;;5053501;28;20463;-79
2021/06/16 06:12:24;;;;;;;3.53;3.30;;;21.50;99.90;;;;;;5052950;28;20968;-80
2021/06/16 06:14:51;;;;;;;3.50;3.20;;;21.80;99.90;;;;;;5053321;28;20549;-79
2021/06/16 06:17:18;;;;;;;4.30;4.00;;;22.10;99.90;;;;;;5052957;28;20967;-80
2021/06/16 06:19:46;;;;;;;3.38;3.17;;;22.40;99.90;;;;;;5053175;28;20207;-80
2021/06/16 06:22:13;;;;;;;3.35;3.05;;;22.60;99.90;;;;;;5052748;28;20717;-80
2021/06/16 06:24:39;;;;;;;3.15;3.05;;;22.80;99.90;;;;;;5052980;28;20273;-80
2021/06/16 06:27:07;;;;;;;3.13;2.92;;;23.00;99.90;;;;;;5052864;28;20205;-80
2021/06/16 06:29:34;;;;;;;3.47;3.17;;;23.40;99.90;;;;;;5052807;28;20663;-80
2021/06/16 06:32:00;;;;;;;4.97;3.88;;;23.80;99.90;;;;;;5053102;28;20219;-80
2021/06/16 06:34:27;;;;;;;3.05;2.85;;;24.20;99.90;;;;;;5052853;28;20195;-80
2021/06/16 06:36:55;;;;;;;3.22;2.92;;;24.60;99.90;;;;;;5053080;28;20202;-80
2021/06/16 06:39:22;;;;;;;3.22;3.03;;;24.90;99.90;;;;;;5052599;28;20238;-80
2021/06/16 06:41:49;;;;;;;3.63;3.20;;;25.00;99.30;;;;;;5052824;28;20277;-80
2021/06/16 06:44:16;;;;;;;3.38;3.15;;;25.20;98.20;;;;;;5052695;28;20198;-80
2021/06/16 06:46:42;;;;;;;3.10;2.90;;;25.20;97.40;;;;;;5052633;28;20573;-80
2021/06/16 06:49:09;;;;;;;3.20;3.00;;;25.30;96.50;;;;;;5052907;28;20205;-80
2021/06/16 06:51:36;;;;;;;3.10;2.90;;;25.50;95.50;;;;;;5052797;28;20199;-80
2021/06/16 06:54:08;;;;;;;2.85;2.65;;;25.60;95.30;;;;;;5052943;28;20209;-80
2021/06/16 06:56:35;;;;;;;3.85;2.50;;;25.70;96.30;;;;;;5052744;28;20638;-80
2021/06/16 06:59:02;;;;;;;2.83;2.40;;;25.80;93.60;;;;;;5052567;28;20697;-80
2021/06/16 07:01:29;;;;;;;3.75;3.00;;;25.90;92.50;;;;;;5052624;28;20222;-80
2021/06/16 07:04:00;;;;;;;3.30;3.00;;;25.80;91.70;;;;;;5052839;28;20344;-80
2021/06/16 07:06:27;;;;;;;2.80;2.50;;;25.70;92.80;;;;;;5052498;28;20237;-80
2021/06/16 07:08:54;;;;;;;3.35;2.97;;;25.70;93.60;;;;;;5052541;28;20670;-80
2021/06/16 07:11:22;;;;;;;3.10;2.85;;;25.60;92.90;;;;;;5052747;28;20203;-80
2021/06/16 07:13:48;;;;;;;3.30;3.10;;;25.60;93.10;;;;;;5052475;28;20223;-80
2021/06/16 07:16:15;;;;;;;3.53;3.33;;;25.70;92.00;;;;;;5055686;28;20222;-79
2021/06/16 07:18:42;;;;;;;2.88;2.78;;;25.70;91.80;;;;;;5056105;28;20704;-79
2021/06/16 07:21:10;;;;;;;3.47;3.33;;;25.80;89.80;;;;;;5056065;28;20214;-79
2021/06/16 07:23:37;;;;;;;5.75;3.92;;;25.80;90.40;;;;;;5056258;28;20226;-79
2021/06/16 07:26:04;;;;;;;2.72;2.58;;;25.90;91.60;;;;;;5056103;28;20202;-80
2021/06/16 07:28:32;;;;;;;3.40;3.10;;;26.10;91.50;;;;;;5056601;28;20213;-79
2021/06/16 07:30:58;;;;;;;2.88;2.67;;;26.40;90.60;;;;;;5055921;28;20198;-79
2021/06/16 07:33:25;;;;;;;4.88;3.10;;;26.70;90.10;;;;;;5056129;28;20223;-80
2021/06/16 07:35:52;;;;;;;3.50;3.28;;;26.90;90.20;;;;;;5056145;28;20206;-80
2021/06/16 07:38:19;;;;;;;3.05;2.92;;;27.10;88.40;;;;;;5055783;28;20672;-80
2021/06/16 07:40:46;;;;;;;3.20;2.90;;;27.50;89.90;;;;;;5055576;28;20239;-80
2021/06/16 07:43:12;;;;;;;3.03;2.90;;;27.90;87.50;;;;;;5055882;28;20227;-79
2021/06/16 07:45:40;;;;;;;3.35;3.15;;;28.40;85.00;;;;;;5055670;28;20670;-80
2021/06/16 07:48:08;;;;;;;2.92;2.83;;;28.40;82.50;;;;;;5055925;28;20217;-79
2021/06/16 07:50:36;;;;;;;3.47;3.28;;;28.50;81.90;;;;;;5055847;28;20215;-80
2021/06/16 07:53:04;;;;;;;3.38;3.10;;;28.70;82.00;;;;;;5055797;28;20233;-79
2021/06/16 07:55:31;;;;;;;3.20;3.00;;;29.20;77.90;;;;;;5055494;28;20214;-80
2021/06/16 07:57:58;;;;;;;4.03;2.92;;;29.40;77.80;;;;;;5055738;28;20236;-81
2021/06/16 08:00:25;;;;;;;5.03;3.25;;;29.90;77.20;;;;;;5055425;28;20682;-80
2021/06/16 08:02:53;;;;;;;2.80;2.63;;;30.30;75.90;;;;;;5055254;28;20256;-80
2021/06/16 08:05:20;;;;;;;2.75;2.65;;;31.10;71.10;;;;;;5055367;28;20195;-80
2021/06/16 08:07:46;;;;;;;3.10;2.95;;;31.90;66.50;;;;;;5055251;28;20666;-81
2021/06/16 08:10:14;;;;;;;2.95;2.83;;;32.80;64.70;;;;;;5055559;28;20209;-81
2021/06/16 08:12:41;;;;;;;2.63;2.53;;;33.10;59.00;;;;;;5055376;28;20230;-80
2021/06/16 08:15:09;;;;;;;2.90;2.80;;;33.90;57.50;;;;;;5055508;28;20209;-80
2021/06/16 08:17:36;;;;;;;2.80;2.70;;;34.80;53.40;;;;;;5055136;28;20543;-83
2021/06/16 08:20:05;;;;;;;2.95;2.53;;;35.60;51.60;;;;;;5055356;28;20261;-80
2021/06/16 08:22:33;;;;;;;2.67;2.47;;;35.70;50.60;;;;;;5055234;28;20231;-81
2021/06/16 08:25:00;;;;;;;3.05;2.75;;;35.60;49.10;;;;;;5054996;28;20730;-81
2021/06/16 08:27:27;;;;;;;2.63;2.45;;;35.90;49.20;;;;;;5054313;28;20611;-80
2021/06/16 08:29:54;;;;;;;2.70;2.50;;;36.30;48.80;;;;;;5055230;28;20283;-81
2021/06/16 08:32:21;;;;;;;2.60;2.40;;;36.50;47.70;;;;;;5054824;28;20223;-81
2021/06/16 08:34:47;;;;;;;2.70;2.50;;;36.40;47.50;;;;;;5055093;28;20211;-82
2021/06/16 08:37:15;;;;;;;2.80;2.70;;;36.10;48.30;;;;;;5055720;28;20209;-80
2021/06/16 08:39:42;;;;;;;2.50;2.40;;;35.70;46.90;;;;;;5054483;28;20723;-82
2021/06/16 08:42:11;;;;;;;5.38;2.42;;;35.50;46.90;;;;;;5054774;28;20235;-80
2021/06/16 08:44:38;;;;;;;2.70;2.58;;;35.60;46.60;;;;;;5054682;28;20266;-82
2021/06/16 08:47:06;;;;;;;3.50;3.30;;;35.50;44.60;;;;;;5054851;28;20198;-81
2021/06/16 08:49:33;;;;;;;2.58;2.38;;;35.20;45.50;;;;;;5054820;28;20620;-81
2021/06/16 08:52:00;;;;;;;2.42;2.20;;;34.50;46.50;;;;;;5054671;28;20219;-81
2021/06/16 08:54:28;;;;;;;2.97;2.80;;;34.10;47.80;;;;;;5054721;28;20188;-81
2021/06/16 08:56:55;;;;;;;2.50;2.40;;;33.70;50.60;;;;;;5054779;28;20191;-80
2021/06/16 08:59:22;;;;;;;3.08;2.80;;;33.20;50.00;;;;;;5054639;28;20212;-81
2021/06/16 09:01:49;;;;;;;3.25;2.80;;;32.70;51.40;;;;;;5054136;28;20235;-82
2021/06/16 09:04:43;;;;;;;3.03;2.83;;;32.30;49.70;;;;;;5054455;28;20183;-81
2021/06/16 09:07:14;;;;;;;3.13;2.70;;;31.90;51.30;;;;;;5054464;28;20206;-81
2021/06/16 09:09:42;;;;;;;2.35;2.25;;;31.70;52.80;;;;;;5054684;28;20657;-81
2021/06/16 09:12:10;;;;;;;2.75;2.30;;;31.50;54.20;;;;;;5053991;28;20737;-81
2021/06/16 09:14:48;;;;;;;2.35;2.25;;;31.40;53.80;;;;;;5054349;28;20191;-80
2021/06/16 09:17:20;;;;;;;2.45;2.35;;;31.60;52.30;;;;;;5054312;28;20186;-80
2021/06/16 09:19:52;;;;;;;4.85;2.60;;;31.30;52.00;;;;;;5054263;28;20186;-81
2021/06/16 09:22:19;;;;;;;2.65;2.53;;;31.30;53.70;;;;;;5054162;28;20729;-80
2021/06/16 09:24:51;;;;;;;2.67;2.47;;;31.20;51.10;;;;;;5054579;28;20208;-80
2021/06/16 09:27:43;;;;;;;4.82;2.97;;;30.90;52.10;;;;;;5053748;28;20207;-80
2021/06/16 09:30:32;;;;;;;2.70;2.50;;;30.90;53.70;;;;;;5054257;28;20199;-81
2021/06/16 09:33:05;;;;;;;3.10;2.60;;;30.80;53.80;;;;;;5053906;28;20227;-81
2021/06/16 09:35:33;;;;;;;2.58;2.47;;;30.90;52.80;;;;;;5053712;28;20555;-81
2021/06/16 09:38:02;;;;;;;2.53;2.42;;;30.80;52.90;;;;;;5053483;28;20559;-80
2021/06/16 09:40:33;;;;;;;2.83;2.63;;;30.70;53.70;;;;;;5053417;28;20308;-81
2021/06/16 09:43:03;;;;;;;3.20;3.00;;;30.80;54.20;;;;;;5053364;28;20222;-81
2021/06/16 09:45:30;;;;;;;2.63;2.53;;;30.80;53.90;;;;;;5053863;28;20263;-80
2021/06/16 09:47:57;;;;;;;5.18;3.65;;;30.90;51.70;;;;;;5053762;28;20191;-82
2021/06/16 09:50:26;;;;;;;2.67;2.58;;;30.90;51.70;;;;;;5053732;28;20197;-81
2021/06/16 09:52:53;;;;;;;3.00;2.80;;;30.90;52.70;;;;;;5053635;28;20228;-81
2021/06/16 09:55:28;;;;;;;3.40;3.20;;;31.00;53.20;;;;;;5053631;28;20190;-81
2021/06/16 09:58:04;;;;;;;3.30;3.03;;;31.00;53.80;;;;;;5053295;28;20667;-79
2021/06/16 10:00:33;;;;;;;3.30;3.10;;;31.20;53.20;;;;;;5053280;28;20701;-81
2021/06/16 10:03:14;;;;;;;2.78;2.67;;;31.10;54.20;;;;;;5053151;28;20241;-83
2021/06/16 10:06:04;;;;;;;4.45;2.47;;;30.90;53.00;;;;;;5053509;28;20189;-80
2021/06/16 10:08:31;;;;;;;9.35;3.20;;;30.80;53.80;;;;;;5053270;28;20217;-82
2021/06/16 10:10:58;;;;;;;3.10;2.90;;;31.00;52.40;;;;;;5053934;28;20613;-82
2021/06/16 10:13:27;;;;;;;2.72;2.58;;;31.00;53.40;;;;;;5053299;28;20228;-81
2021/06/16 10:15:54;;;;;;;3.10;2.90;;;31.10;52.40;;;;;;5053417;28;20635;-81
2021/06/16 10:18:22;;;;;;;3.42;2.95;;;31.00;53.70;;;;;;5053354;28;20191;-81
2021/06/16 10:20:49;;;;;;;3.33;3.17;;;31.20;53.60;;;;;;5053305;28;20643;-81
2021/06/16 10:23:16;;;;;;;4.40;2.80;;;31.30;53.20;;;;;;5052767;28;20587;-81
2021/06/16 10:25:43;;;;;;;5.50;3.15;;;31.20;53.50;;;;;;5052917;28;20560;-81
2021/06/16 10:28:11;;;;;;;3.00;2.80;;;31.40;53.20;;;;;;5053939;28;20539;-81
2021/06/16 10:30:42;;;;;;;3.22;3.03;;;31.60;51.90;;;;;;5053983;28;20209;-81
2021/06/16 10:33:29;;;;;;;2.60;2.50;;;31.60;50.70;;;;;;5053080;28;20223;-81
2021/06/16 10:36:11;;;;;;;3.10;2.90;;;31.70;51.90;;;;;;5052894;28;20661;-81
2021/06/16 10:38:39;;;;;;;2.97;2.78;;;31.80;51.40;;;;;;5052967;28;20191;-81
2021/06/16 10:41:06;;;;;;;2.80;2.60;;;31.60;52.30;;;;;;5052819;28;20564;-82
2021/06/16 10:43:33;;;;;;;2.63;2.47;;;31.60;51.60;;;;;;5052722;28;20227;-81
2021/06/16 10:46:12;;;;;;;2.55;2.45;;;31.60;51.10;;;;;;5053720;28;20536;-81
2021/06/16 10:48:51;;;;;;;2.85;2.65;;;31.30;51.50;;;;;;5053003;28;20299;-81
2021/06/16 10:51:27;;;;;;;3.00;2.80;;;31.20;52.40;;;;;;5056625;28;20241;-81
2021/06/16 10:54:19;;;;;;;5.18;2.83;;;31.20;53.10;;;;;;5057693;28;20194;-82
2021/06/16 10:56:47;;;;;;;3.45;3.28;;;31.40;51.90;;;;;;5056662;28;20562;-81
2021/06/16 10:59:14;;;;;;;3.47;3.28;;;31.50;52.30;;;;;;5056672;28;20722;-81
2021/06/16 11:01:50;;;;;;;3.00;2.90;;;31.70;52.40;;;;;;5056603;28;20203;-82
2021/06/16 11:04:27;;;;;;;3.40;2.75;;;31.70;50.30;;;;;;5056826;28;20211;-82
2021/06/16 11:06:54;;;;;;;2.53;2.40;;;31.80;50.80;;;;;;5056730;28;20198;-81
2021/06/16 11:09:47;;;;;;;3.17;2.97;;;31.70;50.80;;;;;;5056750;28;20216;-81
2021/06/16 11:12:14;;;;;;;2.83;2.70;;;31.50;52.30;;;;;;5056545;28;20223;-81
2021/06/16 11:14:47;;;;;;;2.97;2.78;;;31.30;52.40;;;;;;5056654;28;20191;-82
2021/06/16 11:17:47;;;;;;;3.00;2.80;;;31.40;52.10;;;;;;5056625;28;20218;-82
2021/06/16 11:20:21;;;;;;;2.75;2.63;;;31.30;51.10;;;;;;5056245;28;20184;-81
2021/06/16 11:22:53;;;;;;;3.05;2.85;;;31.20;51.50;;;;;;5056430;28;20239;-81
2021/06/16 11:25:31;;;;;;;2.95;2.75;;;31.20;51.30;;;;;;5056055;28;20191;-81
2021/06/16 11:28:06;;;;;;;3.40;3.20;;;31.10;51.50;;;;;;5056420;28;20191;-81
2021/06/16 11:30:35;;;;;;;3.20;3.00;;;30.90;51.10;;;;;;5056008;28;20651;-81
2021/06/16 11:33:31;;;;;;;3.03;2.70;;;30.90;51.90;;;;;;5056169;28;20218;-81
2021/06/16 11:35:59;;;;;;;3.00;2.90;;;30.80;53.30;;;;;;5056241;28;20187;-82
2021/06/16 11:38:32;;;;;;;3.10;2.95;;;30.80;52.10;;;;;;5056117;28;20194;-82
2021/06/16 11:41:02;;;;;;;2.85;2.65;;;30.80;53.40;;;;;;5056134;28;20199;-82
2021/06/16 11:43:31;;;;;;;3.63;3.00;;;30.70;51.60;;;;;;5055991;28;20241;-81
2021/06/16 11:45:58;;;;;;;3.47;3.20;;;30.70;51.00;;;;;;5055709;28;20669;-84
2021/06/16 11:48:25;;;;;;;2.95;2.80;;;30.50;51.00;;;;;;5055975;28;20183;-82
2021/06/16 11:50:53;;;;;;;3.55;3.25;;;30.40;52.70;;;;;;5055927;28;20191;-82
2021/06/16 11:53:27;;;;;;;3.15;2.95;;;30.40;53.50;;;;;;5055833;28;20222;-82
2021/06/16 11:55:54;;;;;;;3.63;3.42;;;30.40;52.00;;;;;;5055833;28;20217;-82
2021/06/16 11:58:22;;;;;;;4.00;3.70;;;30.30;53.40;;;;;;5055764;28;20187;-82
2021/06/16 12:00:51;;;;;;;3.58;3.28;;;30.30;53.50;;;;;;5054726;28;20550;-82
2021/06/16 12:03:18;;;;;;;3.45;3.30;;;30.40;52.90;;;;;;5055038;28;20226;-81
2021/06/16 12:05:45;;;;;;;4.13;3.20;;;30.40;51.60;;;;;;5055401;28;20196;-81
2021/06/16 12:08:22;;;;;;;3.38;3.17;;;30.40;52.00;;;;;;5055334;28;20187;-81
2021/06/16 12:10:49;;;;;;;3.55;3.35;;;30.30;53.10;;;;;;5055540;28;20199;-81
2021/06/16 12:13:16;;;;;;;3.47;3.10;;;30.30;52.30;;;;;;5055661;28;20689;-81
2021/06/16 12:15:43;;;;;;;3.53;3.22;;;30.30;52.00;;;;;;5055503;28;20187;-82
2021/06/16 12:18:12;;;;;;;3.15;2.92;;;30.10;51.30;;;;;;5055713;28;20199;-81
2021/06/16 12:20:40;;;;;;;3.72;3.53;;;29.90;51.50;;;;;;5055752;28;20179;-80
2021/06/16 12:23:25;;;;;;;3.05;2.75;;;29.80;52.20;;;;;;5055251;28;20234;-81
2021/06/16 12:26:02;;;;;;;3.10;2.90;;;29.70;52.80;;;;;;5055288;28;20614;-81
2021/06/16 12:28:29;;;;;;;2.97;2.85;;;29.60;54.10;;;;;;5055265;28;20244;-81
2021/06/16 12:30:57;;;;;;;4.03;3.78;;;29.70;52.90;;;;;;5055173;28;20187;-81
2021/06/16 12:33:38;;;;;;;3.63;3.30;;;29.80;51.60;;;;;;5055088;28;20309;-81
2021/06/16 12:36:07;;;;;;;3.08;2.78;;;29.70;53.10;;;;;;5055159;28;20187;-80
2021/06/16 12:38:37;;;;;;;2.85;2.75;;;29.80;52.60;;;;;;5055052;28;20600;-82
2021/06/16 12:41:22;;;;;;;3.15;2.95;;;29.60;53.00;;;;;;5054797;28;20203;-81
2021/06/16 12:43:48;;;;;;;3.40;3.10;;;29.50;53.70;;;;;;5054760;28;20218;-80
2021/06/16 12:46:15;;;;;;;4.13;3.67;;;29.60;53.40;;;;;;5054453;28;20673;-82
2021/06/16 12:48:42;;;;;;;4.55;4.25;;;29.60;52.70;;;;;;5054479;28;20630;-81
2021/06/16 12:51:09;;;;;;;3.67;3.47;;;29.50;52.90;;;;;;5054809;28;20183;-81
2021/06/16 12:53:39;;;;;;;5.65;3.50;;;29.60;52.20;;;;;;5054380;28;20225;-82
2021/06/16 12:56:08;;;;;;;3.05;2.90;;;29.60;53.00;;;;;;5054720;28;20194;-81
2021/06/16 12:58:45;;;;;;;3.58;3.38;;;29.50;53.10;;;;;;5054876;28;20187;-80